createdAt,value
2023-01-02T00:00:11.471Z,97.80
2023-01-02T00:02:42.639Z,97.90
2023-01-02T00:05:12.428Z,97.90
2023-01-02T00:07:41.515Z,97.80
2023-01-02T00:10:10.739Z,97.80
2023-01-02T00:12:40.145Z,97.90
2023-01-02T00:15:12.066Z,97.90
2023-01-02T00:17:41.628Z,97.90
2023-01-02T00:20:11.410Z,97.80
2023-01-02T00:22:40.626Z,98.00
2023-01-02T00:25:10.657Z,98.00
2023-01-02T00:27:39.790Z,98.00
2023-01-02T00:30:09.762Z,97.90
2023-01-02T00:32:38.831Z,97.90
2023-01-02T00:35:08.885Z,97.90
2023-01-02T00:37:38.331Z,98.10
2023-01-02T00:40:08.494Z,98.00
2023-01-02T00:42:37.641Z,97.90
2023-01-02T00:45:07.327Z,98.10
2023-01-02T00:47:36.427Z,98.10
2023-01-02T00:50:06.822Z,98.10
2023-01-02T00:52:35.940Z,98.20
2023-01-02T00:55:05.566Z,98.00
2023-01-02T00:57:34.753Z,97.90
2023-01-02T01:00:04.365Z,97.80
2023-01-02T01:02:33.567Z,97.80
2023-01-02T01:05:02.765Z,97.90
2023-01-02T01:07:32.018Z,97.80
2023-01-02T01:10:01.099Z,97.70
2023-01-02T01:12:30.226Z,97.70
2023-01-02T01:14:59.364Z,97.70
2023-01-02T01:17:29.575Z,97.60
2023-01-02T01:19:58.790Z,97.60
2023-01-02T01:22:28.145Z,97.70
2023-01-02T01:24:57.372Z,97.50
2023-01-02T01:27:26.651Z,97.20
2023-01-02T01:29:55.878Z,96.80
2023-01-02T01:32:25.275Z,96.60
2023-01-02T01:34:56.745Z,96.50
2023-01-02T01:37:26.241Z,96.30
2023-01-02T01:39:56.891Z,96.10
2023-01-02T01:42:26.366Z,96.10
2023-01-02T01:44:57.195Z,95.90
2023-01-02T01:47:31.499Z,95.70
2023-01-02T01:50:26.317Z,95.70
2023-01-02T01:53:10.104Z,95.60
2023-01-02T01:56:03.335Z,95.50
2023-01-02T01:58:40.393Z,95.40
2023-01-02T02:01:11.464Z,95.20
2023-01-02T02:03:47.623Z,95.00
2023-01-02T02:06:20.725Z,94.80
2023-01-02T02:09:31.377Z,94.70
2023-01-02T02:12:03.382Z,94.60
2023-01-02T02:14:38.010Z,94.30
2023-01-02T02:17:39.891Z,94.20
2023-01-02T02:20:43.292Z,94.00
2023-01-02T02:23:48.377Z,94.00
2023-01-02T02:27:13.004Z,93.90
2023-01-02T02:30:20.007Z,93.90
2023-01-02T02:32:56.840Z,93.80
2023-01-02T02:35:31.557Z,93.50
2023-01-02T02:38:27.805Z,93.40
2023-01-02T02:41:27.525Z,93.20
2023-01-02T02:44:37.915Z,93.30
2023-01-02T02:47:45.213Z,93.10
2023-01-02T02:50:33.838Z,93.00
2023-01-02T02:53:31.433Z,93.00
2023-01-02T02:56:06.729Z,93.10
2023-01-02T02:58:37.754Z,92.80
2023-01-02T03:01:14.537Z,92.70
2023-01-02T03:03:44.376Z,92.40
2023-01-02T03:06:50.441Z,92.20
2023-01-02T03:09:53.325Z,92.20
2023-01-02T03:12:49.880Z,92.10
2023-01-02T03:15:33.698Z,92.00
2023-01-02T03:18:25.658Z,91.80
2023-01-02T03:21:19.309Z,91.80
2023-01-02T03:23:51.019Z,91.70
2023-01-02T03:26:31.933Z,91.70
2023-01-02T03:29:10.360Z,91.50
2023-01-02T03:31:46.541Z,91.50
2023-01-02T03:34:22.768Z,91.50
2023-01-02T03:36:59.644Z,91.30
2023-01-02T03:39:36.344Z,91.30
2023-01-02T03:42:15.366Z,91.00
2023-01-02T03:45:17.404Z,90.90
2023-01-02T03:48:29.425Z,91.10
2023-01-02T03:51:02.242Z,90.80
2023-01-02T03:53:35.019Z,90.60
2023-01-02T03:56:43.429Z,90.60
2023-01-02T04:00:01.018Z,90.50
2023-01-02T04:02:54.924Z,90.40
2023-01-02T04:06:08.218Z,90.40
2023-01-02T04:09:24.125Z,90.40
2023-01-02T04:12:03.856Z,90.30
2023-01-02T04:14:47.883Z,90.20
2023-01-02T04:17:21.551Z,90.00
2023-01-02T04:20:19.714Z,90.10
2023-01-02T04:23:18.338Z,90.00
2023-01-02T04:26:02.969Z,89.80
2023-01-02T04:28:35.675Z,89.80
2023-01-02T04:31:13.220Z,89.80
2023-01-02T04:34:03.659Z,89.70
2023-01-02T04:36:38.512Z,89.90
2023-01-02T04:39:08.295Z,89.30
2023-01-02T04:41:40.394Z,88.70
2023-01-02T04:44:09.716Z,88.50
2023-01-02T04:46:38.915Z,88.20
2023-01-02T04:49:08.109Z,87.80
2023-01-02T04:51:37.205Z,87.90
2023-01-02T04:54:06.691Z,87.70
2023-01-02T04:56:35.760Z,87.70
2023-01-02T04:59:04.863Z,87.50
2023-01-02T05:01:34.038Z,87.20
2023-01-02T05:04:03.203Z,87.10
2023-01-02T05:06:33.405Z,86.70
2023-01-02T05:09:02.494Z,86.30
2023-01-02T05:11:31.661Z,85.50
2023-01-02T05:14:06.992Z,85.40
2023-01-02T05:16:36.716Z,85.10
2023-01-02T05:19:06.175Z,85.20
2023-01-02T05:21:53.967Z,85.30
2023-01-02T05:24:23.037Z,84.80
2023-01-02T05:26:52.194Z,84.90
2023-01-02T05:29:21.493Z,84.40
2023-01-02T05:31:50.674Z,84.20
2023-01-02T05:34:19.912Z,84.30
2023-01-02T05:36:49.080Z,83.90
2023-01-02T05:39:18.212Z,83.80
2023-01-02T05:41:47.440Z,84.00
2023-01-02T05:44:16.603Z,84.30
2023-01-02T05:46:45.830Z,84.30
2023-01-02T05:49:15.114Z,84.10
2023-01-02T05:51:44.316Z,84.30
2023-01-02T05:54:14.057Z,84.10
2023-01-02T05:56:43.200Z,83.70
2023-01-02T05:59:12.371Z,83.70
2023-01-02T06:01:41.970Z,83.40
2023-01-02T06:04:14.652Z,83.30
2023-01-02T06:06:47.714Z,83.40
2023-01-02T06:09:18.464Z,83.50
2023-01-02T06:11:47.578Z,83.60
2023-01-02T06:14:16.651Z,83.80
2023-01-02T06:16:45.830Z,84.40
2023-01-02T06:19:15.453Z,84.40
2023-01-02T06:21:44.702Z,83.70
2023-01-02T06:24:14.009Z,83.50
2023-01-02T06:26:43.212Z,83.70
2023-01-02T06:29:12.405Z,83.50
2023-01-02T06:31:43.561Z,83.70
2023-01-02T06:34:18.687Z,83.60
2023-01-02T06:36:47.891Z,83.40
2023-01-02T06:39:17.102Z,83.60
2023-01-02T06:41:46.316Z,83.80
2023-01-02T06:44:15.675Z,83.40
2023-01-02T06:46:44.883Z,83.50
2023-01-02T06:49:14.081Z,83.60
2023-01-02T06:51:43.269Z,83.70
2023-01-02T06:54:12.498Z,83.70
2023-01-02T06:56:42.467Z,83.50
2023-01-02T06:59:12.412Z,83.30
2023-01-02T07:01:41.758Z,83.40
2023-01-02T07:04:20.264Z,82.90
2023-01-02T07:06:49.419Z,83.20
2023-01-02T07:09:18.637Z,83.30
2023-01-02T07:11:47.889Z,82.60
2023-01-02T07:14:17.051Z,82.20
2023-01-02T07:16:46.267Z,82.10
2023-01-02T07:19:15.492Z,82.10
2023-01-02T07:21:45.303Z,81.90
2023-01-02T07:24:19.006Z,82.10
2023-01-02T07:26:48.200Z,82.00
2023-01-02T07:29:17.449Z,82.30
2023-01-02T07:31:46.692Z,81.70
2023-01-02T07:34:16.415Z,81.80
2023-01-02T07:36:46.777Z,81.90
2023-01-02T07:39:16.060Z,82.10
2023-01-02T07:41:45.360Z,82.40
2023-01-02T07:44:14.532Z,82.20
2023-01-02T07:46:43.757Z,82.00
2023-01-02T07:49:15.996Z,81.90
2023-01-02T07:51:45.202Z,82.50
2023-01-02T07:54:14.413Z,82.30
2023-01-02T07:56:43.687Z,82.20
2023-01-02T07:59:13.549Z,82.40
2023-01-02T08:01:42.823Z,82.80
2023-01-02T08:04:12.053Z,82.80
2023-01-02T08:06:44.613Z,82.80
2023-01-02T08:09:13.824Z,83.00
2023-01-02T08:11:43.070Z,82.80
2023-01-02T08:14:13.300Z,82.90
2023-01-02T08:16:45.163Z,82.90
2023-01-02T08:19:14.504Z,83.00
2023-01-02T08:21:43.683Z,83.10
2023-01-02T08:24:12.957Z,83.50
2023-01-02T08:26:42.453Z,83.70
2023-01-02T08:29:11.719Z,83.70
2023-01-02T08:31:43.816Z,83.60
2023-01-02T08:34:15.594Z,83.20
2023-01-02T08:36:45.685Z,83.30
2023-01-02T08:39:14.840Z,83.30
2023-01-02T08:41:44.031Z,83.50
2023-01-02T08:44:13.198Z,83.20
2023-01-02T08:46:43.128Z,84.10
2023-01-02T08:49:13.441Z,83.60
2023-01-02T08:51:42.598Z,83.60
2023-01-02T08:54:11.784Z,83.80
2023-01-02T08:56:42.450Z,84.10
2023-01-02T08:59:13.811Z,84.00
2023-01-02T09:01:44.004Z,84.20
2023-01-02T09:04:13.605Z,84.20
2023-01-02T09:06:49.433Z,83.70
2023-01-02T09:09:19.297Z,83.80
2023-01-02T09:11:53.754Z,83.50
2023-01-02T09:14:24.258Z,83.60
2023-01-02T09:16:54.052Z,83.50
2023-01-02T09:19:23.236Z,83.40
2023-01-02T09:21:55.452Z,83.20
2023-01-02T09:24:25.207Z,83.30
2023-01-02T09:26:55.456Z,83.50
2023-01-02T09:29:24.643Z,83.80
2023-01-02T09:31:54.219Z,84.00
2023-01-02T09:34:23.380Z,84.10
2023-01-02T09:36:52.539Z,84.30
2023-01-02T09:39:23.598Z,84.50
2023-01-02T09:42:01.504Z,84.70
2023-01-02T09:44:55.044Z,85.10
2023-01-02T09:47:31.921Z,85.10
2023-01-02T09:50:15.891Z,85.30
2023-01-02T09:52:54.022Z,85.50
2023-01-02T09:55:59.242Z,85.60
2023-01-02T09:59:04.039Z,85.70
2023-01-02T10:02:09.854Z,85.60
2023-01-02T10:04:59.458Z,85.70
2023-01-02T10:07:57.971Z,85.90
2023-01-02T10:10:42.197Z,85.70
2023-01-02T10:13:44.220Z,85.70
2023-01-02T10:16:27.661Z,86.00
2023-01-02T10:19:01.064Z,86.30
2023-01-02T10:21:37.127Z,86.40
2023-01-02T10:24:21.271Z,86.50
2023-01-02T10:26:55.329Z,86.40
2023-01-02T10:29:46.786Z,86.60
2023-01-02T10:32:20.951Z,86.60
2023-01-02T10:35:32.872Z,86.60
2023-01-02T10:38:04.677Z,86.40
2023-01-02T10:43:03.879Z,86.90
2023-01-02T10:45:34.759Z,87.00
2023-01-02T10:48:04.016Z,87.00
2023-01-02T10:50:47.623Z,87.40
2023-01-02T10:53:34.182Z,87.30
2023-01-02T10:56:22.339Z,87.50
2023-01-02T10:58:54.092Z,87.50
2023-01-02T11:01:24.609Z,87.60
2023-01-02T11:03:59.058Z,87.70
2023-01-02T11:06:39.228Z,87.70
2023-01-02T11:09:25.401Z,87.70
2023-01-02T11:12:09.007Z,87.80
2023-01-02T11:14:39.858Z,87.90
2023-01-02T11:17:14.916Z,87.90
2023-01-02T11:20:01.992Z,88.10
2023-01-02T11:22:40.160Z,88.20
2023-01-02T11:25:23.717Z,88.50
2023-01-02T11:27:54.316Z,88.60
2023-01-02T11:30:44.225Z,88.70
2023-01-02T11:33:16.220Z,88.60
2023-01-02T11:36:08.527Z,88.80
2023-01-02T11:38:52.971Z,89.00
2023-01-02T11:41:49.305Z,89.20
2023-01-02T11:44:37.747Z,89.30
2023-01-02T11:47:11.456Z,89.40
2023-01-02T11:49:46.464Z,89.40
2023-01-02T11:52:23.047Z,89.50
2023-01-02T11:55:18.671Z,89.60
2023-01-02T11:58:25.847Z,89.60
2023-01-02T12:01:39.054Z,89.60
2023-01-02T12:04:08.507Z,89.80
2023-01-02T12:07:06.155Z,89.80
2023-01-02T12:10:19.732Z,89.80
2023-01-02T12:13:24.180Z,90.30
2023-01-02T12:16:23.993Z,90.00
2023-01-02T12:19:20.014Z,90.20
2023-01-02T12:22:33.210Z,90.60
2023-01-02T12:25:27.218Z,90.50
2023-01-02T12:28:36.741Z,90.30
2023-01-02T12:31:47.793Z,90.10
2023-01-02T12:34:56.094Z,90.50
2023-01-02T12:37:27.374Z,90.50
2023-01-02T12:40:20.411Z,90.30
2023-01-02T12:43:37.499Z,90.60
2023-01-02T12:46:52.355Z,90.60
2023-01-02T12:49:45.575Z,90.50
2023-01-02T12:52:44.931Z,90.60
2023-01-02T12:55:17.303Z,90.60
2023-01-02T12:58:15.368Z,90.70
2023-01-02T13:01:13.350Z,90.70
2023-01-02T13:04:03.030Z,90.60
2023-01-02T13:07:18.286Z,90.60
2023-01-02T13:09:49.424Z,90.50
2023-01-02T13:12:26.699Z,90.50
2023-01-02T13:15:25.201Z,90.60
2023-01-02T13:18:28.128Z,90.50
2023-01-02T13:21:13.626Z,90.50
2023-01-02T13:23:49.133Z,90.50
2023-01-02T13:26:39.563Z,90.50
2023-01-02T13:29:11.796Z,90.50
2023-01-02T13:31:50.450Z,90.60
2023-01-02T13:34:33.092Z,90.80
2023-01-02T13:37:17.117Z,90.80
2023-01-02T13:39:51.120Z,90.80
2023-01-02T13:42:55.983Z,90.70
2023-01-02T13:45:44.441Z,90.60
2023-01-02T13:48:33.643Z,90.70
2023-01-02T13:51:20.684Z,90.60
2023-01-02T13:53:53.258Z,90.70
2023-01-02T13:56:28.081Z,90.70
2023-01-02T13:59:02.945Z,90.70
2023-01-02T14:02:04.794Z,90.80
2023-01-02T14:04:39.421Z,90.70
2023-01-02T14:07:26.701Z,90.90
2023-01-02T14:10:38.657Z,90.90
2023-01-02T14:13:14.015Z,91.00
2023-01-02T14:16:24.643Z,91.00
2023-01-02T14:19:17.645Z,91.30
2023-01-02T14:22:07.216Z,91.10
2023-01-02T14:24:36.384Z,91.00
2023-01-02T14:27:28.674Z,91.10
2023-01-02T14:30:05.247Z,91.00
2023-01-02T14:32:44.421Z,91.10
2023-01-02T14:35:16.700Z,91.20
2023-01-02T14:37:50.379Z,91.20
2023-01-02T14:40:28.326Z,91.40
2023-01-02T14:43:31.709Z,91.30
2023-01-02T14:46:23.972Z,91.40
2023-01-02T14:49:25.412Z,91.50
2023-01-02T14:52:14.787Z,91.50
2023-01-02T14:55:05.646Z,91.60
2023-01-02T14:57:43.028Z,91.70
2023-01-02T15:00:24.212Z,91.80
2023-01-02T15:03:20.945Z,91.80
2023-01-02T15:06:26.671Z,91.90
2023-01-02T15:09:06.623Z,91.90
2023-01-02T15:11:53.816Z,92.00
2023-01-02T15:14:24.222Z,92.00
2023-01-02T15:17:01.260Z,92.10
2023-01-02T15:19:35.657Z,92.20
2023-01-02T15:22:18.946Z,92.30
2023-01-02T15:24:55.824Z,92.20
2023-01-02T15:27:29.658Z,92.30
2023-01-02T15:30:02.724Z,92.40
2023-01-02T15:32:36.946Z,92.30
2023-01-02T15:35:33.595Z,92.30
2023-01-02T15:38:03.966Z,92.40
2023-01-02T15:40:36.927Z,92.40
2023-01-02T15:43:32.615Z,92.40
2023-01-02T15:46:02.163Z,92.40
2023-01-02T15:48:32.051Z,92.50
2023-01-02T15:51:02.057Z,92.40
2023-01-02T15:53:40.975Z,92.40
2023-01-02T15:56:38.801Z,92.50
2023-01-02T15:59:31.343Z,92.60
2023-01-02T16:02:00.770Z,92.50
2023-01-02T16:04:35.320Z,92.60
2023-01-02T16:07:27.535Z,92.70
2023-01-02T16:09:58.193Z,92.70
2023-01-02T16:12:28.337Z,92.70
2023-01-02T16:15:01.382Z,92.70
2023-01-02T16:17:36.366Z,92.70
2023-01-02T16:20:20.828Z,92.70
2023-01-02T16:23:08.796Z,92.80
2023-01-02T16:25:46.283Z,92.80
2023-01-02T16:28:35.226Z,92.90
2023-01-02T16:31:25.640Z,93.00
2023-01-02T16:34:14.408Z,93.00
2023-01-02T16:36:43.724Z,93.10
2023-01-02T16:39:53.880Z,93.00
2023-01-02T16:42:38.756Z,93.10
2023-01-02T16:45:09.208Z,93.00
2023-01-02T16:47:44.912Z,93.10
2023-01-02T16:50:28.080Z,93.20
2023-01-02T16:53:04.219Z,93.10
2023-01-02T16:55:33.451Z,93.20
2023-01-02T16:58:02.762Z,93.30
2023-01-02T17:00:31.906Z,93.30
2023-01-02T17:03:01.132Z,93.40
2023-01-02T17:05:45.295Z,93.40
2023-01-02T17:08:14.493Z,93.50
2023-01-02T17:10:43.745Z,93.60
2023-01-02T17:13:13.548Z,93.70
2023-01-02T17:15:42.773Z,93.70
2023-01-02T17:18:14.303Z,93.70
2023-01-02T17:20:43.652Z,93.70
2023-01-02T17:23:12.758Z,93.80
2023-01-02T17:25:47.302Z,93.80
2023-01-02T17:28:17.043Z,93.80
2023-01-02T17:30:50.245Z,93.90
2023-01-02T17:33:20.492Z,93.90
2023-01-02T17:35:51.919Z,93.90
2023-01-02T17:38:21.299Z,93.90
2023-01-02T17:40:50.947Z,93.90
2023-01-02T17:43:20.130Z,93.90
2023-01-02T17:45:49.356Z,94.00
2023-01-02T17:48:23.940Z,94.00
2023-01-02T17:50:54.996Z,94.00
2023-01-02T17:53:24.298Z,93.90
2023-01-02T17:56:21.524Z,93.90
2023-01-02T17:58:45.918Z,93.80
2023-01-02T18:01:22.633Z,93.80
2023-01-02T18:03:52.266Z,93.90
2023-01-02T18:06:21.541Z,93.90
2023-01-02T18:08:52.183Z,93.90
2023-01-02T18:11:21.720Z,93.90
2023-01-02T18:13:55.167Z,93.80
2023-01-02T18:16:34.039Z,93.80
2023-01-02T18:19:05.167Z,93.90
2023-01-02T18:21:35.985Z,93.80
2023-01-02T18:24:15.611Z,94.00
2023-01-02T18:26:44.860Z,94.20
2023-01-02T18:29:23.818Z,94.30
2023-01-02T18:31:53.516Z,94.10
2023-01-02T18:37:24.150Z,94.20
2023-01-02T18:39:54.977Z,94.10
2023-01-02T18:42:33.133Z,94.20
2023-01-02T18:45:03.657Z,94.10
2023-01-02T18:47:38.289Z,94.10
2023-01-02T18:50:23.400Z,94.10
2023-01-02T18:52:54.128Z,94.10
2023-01-02T18:55:36.852Z,94.00
2023-01-02T18:58:38.781Z,94.10
2023-01-02T19:01:29.416Z,93.90
2023-01-02T19:04:24.490Z,93.90
2023-01-02T19:07:01.392Z,94.00
2023-01-02T19:09:39.620Z,93.90
2023-01-02T19:12:45.472Z,93.90
2023-01-02T19:15:49.562Z,93.80
2023-01-02T19:18:40.524Z,93.80
2023-01-02T19:21:16.803Z,93.80
2023-01-02T19:23:49.297Z,93.90
2023-01-02T19:26:29.629Z,93.90
2023-01-02T19:29:15.054Z,93.90
2023-01-02T19:32:24.425Z,94.00
2023-01-02T19:34:57.662Z,94.00
2023-01-02T19:37:45.199Z,94.00
2023-01-02T19:40:23.476Z,94.00
2023-01-02T19:42:55.267Z,94.10
2023-01-02T19:45:30.293Z,94.00
2023-01-02T19:47:59.433Z,94.00
2023-01-02T19:50:29.540Z,94.00
2023-01-02T19:52:58.697Z,94.00
2023-01-02T19:55:27.913Z,94.00
2023-01-02T19:57:57.004Z,94.00
2023-01-02T20:00:26.110Z,94.00
2023-01-02T20:02:55.364Z,94.00
2023-01-02T20:05:25.179Z,94.10
2023-01-02T20:07:55.730Z,94.10
2023-01-02T20:10:25.667Z,94.10
2023-01-02T20:12:54.760Z,94.10
2023-01-02T20:15:27.488Z,94.10
2023-01-02T20:17:57.439Z,94.20
2023-01-02T20:20:30.512Z,94.20
2023-01-02T20:22:59.599Z,94.20
2023-01-02T20:25:29.180Z,94.20
2023-01-02T20:27:58.963Z,94.20
2023-01-02T20:30:28.505Z,94.30
2023-01-02T20:32:57.744Z,94.30
2023-01-02T20:35:26.942Z,94.30
2023-01-02T20:37:56.100Z,94.40
2023-01-02T20:40:25.217Z,94.50
2023-01-02T20:42:54.320Z,94.40
2023-01-02T20:45:23.782Z,94.50
2023-01-02T20:47:54.029Z,94.60
2023-01-02T20:50:23.121Z,94.60
2023-01-02T20:52:56.728Z,94.60
2023-01-02T20:55:26.362Z,94.60
2023-01-02T20:57:55.627Z,94.60
2023-01-02T21:00:24.874Z,94.60
2023-01-02T21:02:54.185Z,94.70
2023-01-02T21:05:23.426Z,94.70
2023-01-02T21:07:52.603Z,94.70
2023-01-02T21:10:21.746Z,94.70
2023-01-02T21:13:09.256Z,94.60
2023-01-02T21:15:52.839Z,94.70
2023-01-02T21:18:28.391Z,94.70
2023-01-02T21:21:09.474Z,94.70
2023-01-02T21:23:42.000Z,94.70
2023-01-02T21:26:15.028Z,94.70
2023-01-02T21:28:49.034Z,94.70
2023-01-02T21:31:20.995Z,94.70
2023-01-02T21:33:51.279Z,94.70
2023-01-02T21:36:20.519Z,94.80
2023-01-02T21:38:49.591Z,94.80
2023-01-02T21:41:37.256Z,94.90
2023-01-02T21:44:06.538Z,94.90
2023-01-02T21:46:35.748Z,95.00
2023-01-02T21:49:04.866Z,95.10
2023-01-02T21:51:34.045Z,95.20
2023-01-02T21:54:03.177Z,95.20
2023-01-02T21:56:33.157Z,95.20
2023-01-02T21:59:02.288Z,95.20
2023-01-02T22:01:31.714Z,95.20
2023-01-02T22:04:00.908Z,95.20
2023-01-02T22:06:35.367Z,95.20
2023-01-02T22:09:05.948Z,95.20
2023-01-02T22:11:53.491Z,95.20
2023-01-02T22:14:41.310Z,95.20
2023-01-02T22:17:12.116Z,95.30
2023-01-02T22:19:41.265Z,95.40
2023-01-02T22:22:10.543Z,95.40
2023-01-02T22:24:44.395Z,95.50
2023-01-02T22:27:17.410Z,95.50
2023-01-02T22:32:38.696Z,95.70
2023-01-02T22:35:09.431Z,95.60
2023-01-02T22:37:38.520Z,95.70
2023-01-02T22:40:08.201Z,95.70
2023-01-02T22:43:10.460Z,95.70
2023-01-02T22:45:50.158Z,95.80
2023-01-02T22:48:29.510Z,95.70
2023-01-02T22:51:02.083Z,95.70
2023-01-02T22:53:36.391Z,95.90
2023-01-02T22:56:16.746Z,95.70
2023-01-02T22:58:46.514Z,95.70
2023-01-02T23:01:47.597Z,95.70
2023-01-02T23:04:26.218Z,95.80
2023-01-02T23:07:25.148Z,95.70
2023-01-02T23:09:44.820Z,95.50
2023-01-02T23:12:13.927Z,95.60
2023-01-02T23:14:43.372Z,95.60
2023-01-02T23:17:33.929Z,95.60
2023-01-02T23:20:03.013Z,95.60
2023-01-02T23:22:32.819Z,95.60
2023-01-02T23:25:02.394Z,95.70
2023-01-02T23:27:31.517Z,95.70
2023-01-02T23:30:00.692Z,95.70
2023-01-02T23:32:29.838Z,96.00
2023-01-02T23:34:59.107Z,95.70
2023-01-02T23:37:28.332Z,95.80
2023-01-02T23:39:57.837Z,95.70
2023-01-02T23:42:27.022Z,95.80
2023-01-02T23:44:56.136Z,95.80
2023-01-02T23:47:25.242Z,95.70
2023-01-02T23:49:54.469Z,95.80
2023-01-02T23:52:23.652Z,95.80
2023-01-02T23:54:52.740Z,95.70
2023-01-02T23:57:21.898Z,95.70
2023-01-02T23:59:50.974Z,95.70
